메인 페이지
METAR-TAF:

METAR-TAF

공항 :

다윈 국제공항

다윈, 오스트레일리아

위도: 12-24S, 경도: 130-52E, 고도: 31m

현재 날씨관측

예보는 19분 전, 04:30시(UTC)에 발표되었습니다.
15kt
온도 34°C
습도 50%
기압 1009 hPa
시정 10km 이상
고도 4300ft 상공 구름 조금

METAR: YPDN 250430Z 10015KT 9999 FEW043 34/22 Q1009

시각: 14:19 (04:49 UTC)

예보

예보는 2 시간 43분 전, 02:06시(UTC)에 발표되었습니다.
예보 대상 시간: 25일 03시부터 26일 06시까지 (UTC)
12kt
시정 10km 이상
고도 4000ft 상공 구름 보통
25일 0600시부터 (UTC)
북동8kt
시정 10km 이상
고도 5000ft 상공 구름 보통
25일 1200시부터 (UTC)
5kt
시정 10km 이상
고도 2500ft 상공 구름 보통
26일 0000시부터 (UTC)
12kt
시정: 2000m
고도 4000ft 상공 구름 보통
고도 1000ft 상공 구름 많음
고도 2500ft 상공 구름 보통, 타워링 적운.
소나기
확률 30% :
일시적
25일 12시부터 25일 18시까지 (UTC)
여러 방향의 바람 20kt, 순간 최대 풍속 35kt
시정: 1000m
고도 800ft 상공 구름 많음
고도 2500ft 상공 구름 보통, 적란운.
뇌우, 비,

TAF: YPDN 250206Z 2503/2606 10012KT 9999 SCT040 FM250600 05008KT 9999 SCT050 FM251200 10005KT 9999 SCT025 FM260000 10012KT 9999 SCT040 INTER 2512/2518 2000 SHRA BKN010 SCT025TCU PROB30 TEMPO 2512/2518 VRB20G35KT 1000 TSRA BKN008 SCT025CB

4,000개 이상의 공항 관측 자료 및 예보 (METAR 및 TAF 보고).

지도상에서 검색 가능한 기상관측소가 노란 점과 빨간 점으로 표시되어 있습니다.

기상관측소 명을 보려면 표시 위로 마우스를 이동하세요.

날씨 관측과 예보를 보려면 클릭하세요.

지도 변경 : 확대하려면 엑스 표시가 있는 녹색 버튼, 축소하려면 빼기 표시가 있는 녹색 버튼, 다음 페이지의 지도를 보려면 녹색 화살표를 클릭하세요.


METAR-TAF: